createdAt,value
2019-03-20T00:03:43.372Z,20.17
2019-03-20T00:08:50.373Z,27.93
2019-03-20T00:13:58.888Z,21.80
2019-03-20T00:19:05.887Z,21.55
2019-03-20T00:24:12.589Z,27.50
2019-03-20T00:29:19.408Z,25.52
2019-03-20T00:34:26.388Z,24.23
2019-03-20T00:44:39.087Z,17.98
2019-03-20T00:49:46.050Z,17.20
2019-03-20T00:54:52.983Z,21.27
2019-03-20T00:59:59.704Z,14.60
2019-03-20T01:05:12.500Z,19.42
2019-03-20T01:10:18.888Z,18.27
2019-03-20T01:15:25.739Z,19.90
2019-03-20T01:20:32.511Z,20.82
2019-03-20T01:25:39.525Z,17.12
2019-03-20T01:30:46.411Z,25.70
2019-03-20T01:35:53.422Z,19.30
2019-03-20T01:41:00.444Z,19.23
2019-03-20T01:46:07.520Z,18.30
2019-03-20T01:51:21.204Z,12.03
2019-03-20T01:56:28.351Z,14.90
2019-03-20T02:01:35.348Z,10.70
2019-03-20T02:06:43.322Z,20.07
2019-03-20T02:11:50.358Z,17.32
2019-03-20T02:16:57.395Z,17.98
2019-03-20T02:22:04.372Z,19.20
2019-03-20T02:27:11.852Z,16.62
2019-03-20T02:32:18.549Z,10.72
2019-03-20T02:37:26.439Z,14.85
2019-03-20T02:42:33.424Z,17.23
2019-03-20T02:48:00.657Z,11.55
2019-03-20T02:53:07.531Z,16.02
2019-03-20T02:58:15.548Z,10.65
2019-03-20T03:03:22.428Z,16.27
2019-03-20T03:08:29.392Z,20.08
2019-03-20T03:13:36.420Z,19.90
2019-03-20T03:18:43.420Z,20.32
2019-03-20T03:23:50.380Z,17.27
2019-03-20T03:34:03.175Z,25.45
2019-03-20T03:39:11.201Z,16.20
2019-03-20T03:44:19.102Z,16.80
2019-03-20T03:49:26.075Z,14.47
2019-03-20T03:54:33.051Z,22.82
2019-03-20T03:59:40.025Z,13.72
2019-03-20T04:04:46.976Z,15.72
2019-03-20T04:09:55.316Z,12.25
2019-03-20T04:15:02.197Z,19.65
2019-03-20T04:20:12.081Z,14.55
2019-03-20T04:25:20.194Z,17.15
2019-03-20T04:30:27.038Z,16.85
2019-03-20T04:35:33.748Z,22.93
2019-03-20T04:40:40.535Z,20.23
2019-03-20T04:45:47.398Z,23.90
2019-03-20T04:50:54.347Z,23.83
2019-03-20T04:56:01.352Z,20.97
2019-03-20T05:01:08.329Z,21.25
2019-03-20T05:06:15.281Z,23.50
2019-03-20T05:11:22.383Z,19.73
2019-03-20T05:16:29.386Z,23.67
2019-03-20T05:21:36.408Z,16.90
2019-03-20T05:26:43.408Z,27.58
2019-03-20T05:31:50.374Z,23.87
2019-03-20T05:36:57.342Z,23.12
2019-03-20T05:42:04.324Z,21.80
2019-03-20T05:47:11.341Z,18.07
2019-03-20T05:52:18.348Z,15.03
2019-03-20T05:57:25.411Z,13.78
2019-03-20T06:02:32.358Z,12.65
2019-03-20T06:07:39.333Z,15.65
2019-03-20T06:12:46.408Z,13.78
2019-03-20T06:17:53.325Z,18.62
2019-03-20T06:23:00.345Z,18.25
2019-03-20T06:28:07.396Z,19.82
2019-03-20T06:33:14.345Z,19.37
2019-03-20T06:38:21.335Z,12.18
2019-03-20T06:48:34.179Z,14.55
2019-03-20T06:53:41.257Z,16.42
2019-03-20T06:58:48.262Z,12.50
2019-03-20T07:04:43.865Z,19.60
2019-03-20T07:10:31.478Z,13.75
2019-03-20T07:15:38.380Z,15.90
2019-03-20T07:20:45.349Z,19.25
2019-03-20T07:25:52.380Z,12.25
2019-03-20T07:30:59.389Z,19.40
2019-03-20T07:36:07.889Z,12.68
2019-03-20T07:41:14.729Z,14.93
2019-03-20T07:46:21.623Z,18.32
2019-03-20T07:51:28.425Z,18.85
2019-03-20T07:56:35.407Z,15.13
2019-03-20T08:01:42.381Z,12.55
2019-03-20T08:06:49.425Z,15.85
2019-03-20T08:11:57.630Z,13.15
2019-03-20T08:17:04.419Z,12.55
2019-03-20T08:22:11.387Z,11.70
2019-03-20T08:27:18.478Z,16.10
2019-03-20T08:32:25.399Z,8.13
2019-03-20T08:42:38.173Z,10.20
2019-03-20T08:47:45.348Z,11.45
2019-03-20T08:52:52.350Z,15.13
2019-03-20T08:57:59.405Z,16.12
2019-03-20T09:03:07.455Z,11.73
2019-03-20T09:08:14.542Z,13.03
2019-03-20T09:13:21.463Z,8.38
2019-03-20T09:18:28.441Z,11.15
2019-03-20T09:23:39.837Z,13.00
2019-03-20T09:28:44.249Z,16.50
2019-03-20T09:33:51.492Z,12.03
2019-03-20T09:38:58.698Z,12.28
2019-03-20T09:44:06.248Z,18.75
2019-03-20T09:54:20.570Z,10.08
2019-03-20T09:59:27.530Z,11.10
2019-03-20T10:04:34.476Z,13.43
2019-03-20T10:09:41.444Z,9.95
2019-03-20T10:14:48.474Z,10.40
2019-03-20T10:19:55.432Z,12.65
2019-03-20T10:25:02.471Z,12.15
2019-03-20T10:30:16.570Z,18.85
2019-03-20T10:35:24.097Z,10.68
2019-03-20T10:40:31.575Z,13.40
2019-03-20T10:45:38.502Z,11.65
2019-03-20T10:50:45.576Z,13.25
2019-03-20T10:55:52.452Z,11.00
2019-03-20T11:00:59.586Z,12.43
2019-03-20T11:06:10.225Z,17.12
2019-03-20T11:11:26.668Z,12.43
2019-03-20T11:16:26.437Z,15.15
2019-03-20T11:21:33.591Z,17.62
2019-03-20T11:26:40.531Z,17.45
2019-03-20T11:31:47.581Z,16.17
2019-03-20T11:36:54.577Z,16.10
2019-03-20T11:42:01.470Z,14.25
2019-03-20T11:47:09.497Z,13.80
2019-03-20T11:52:18.422Z,6.95
2019-03-20T11:57:25.585Z,16.07
2019-03-20T12:02:32.579Z,10.00
2019-03-20T12:07:39.610Z,12.73
2019-03-20T12:12:46.447Z,17.20
2019-03-20T12:17:53.494Z,12.75
2019-03-20T12:27:57.063Z,14.03
2019-03-20T12:33:04.564Z,15.30
2019-03-20T12:38:14.960Z,13.90
2019-03-20T12:43:20.498Z,14.60
2019-03-20T12:48:27.444Z,14.13
2019-03-20T12:53:35.038Z,13.65
2019-03-20T13:00:01.637Z,15.28
2019-03-20T13:05:11.323Z,15.93
2019-03-20T13:15:26.269Z,13.83
2019-03-20T13:25:39.586Z,14.10
2019-03-20T13:30:56.657Z,12.05
2019-03-20T13:36:04.232Z,13.15
2019-03-20T13:41:11.460Z,18.73
2019-03-20T13:51:00.710Z,18.98
2019-03-20T13:56:07.594Z,15.40
2019-03-20T14:01:14.456Z,13.78
2019-03-20T14:06:21.474Z,22.20
2019-03-20T14:11:29.578Z,16.45
2019-03-20T14:16:36.450Z,13.30
2019-03-20T14:21:43.574Z,16.57
2019-03-20T14:26:52.264Z,13.95
2019-03-20T14:31:59.572Z,18.32
2019-03-20T14:42:12.448Z,20.17
2019-03-20T14:47:19.532Z,18.17
2019-03-20T14:52:27.057Z,14.63
2019-03-20T14:57:34.262Z,13.65
2019-03-20T15:02:41.427Z,19.00
2019-03-20T15:07:48.557Z,14.35
2019-03-20T15:12:56.242Z,16.45
2019-03-20T15:18:03.519Z,19.32
2019-03-20T15:23:10.565Z,21.40
2019-03-20T15:28:17.865Z,21.77
2019-03-20T15:33:24.696Z,20.08
2019-03-20T15:38:31.572Z,20.75
2019-03-20T15:43:38.578Z,23.55
2019-03-20T15:48:45.467Z,19.98
2019-03-20T15:53:52.471Z,19.05
2019-03-20T15:59:00.476Z,19.05
2019-03-20T16:04:09.897Z,18.35
2019-03-20T16:10:34.893Z,19.35
2019-03-20T16:15:41.589Z,17.63
2019-03-20T16:20:48.549Z,20.23
2019-03-20T16:25:55.449Z,21.25
2019-03-20T16:31:02.446Z,18.80
2019-03-20T16:36:09.581Z,19.35
2019-03-20T16:41:17.184Z,24.70
2019-03-20T16:46:24.496Z,22.13
2019-03-20T16:51:31.574Z,22.48
2019-03-20T16:56:38.471Z,22.13
2019-03-20T17:01:45.455Z,21.57
2019-03-20T17:06:52.545Z,18.82
2019-03-20T17:11:59.597Z,22.32
2019-03-20T17:17:06.657Z,24.75
2019-03-20T17:22:13.627Z,17.55
2019-03-20T17:27:20.577Z,21.90
2019-03-20T17:32:27.570Z,25.40
2019-03-20T17:37:34.567Z,25.37
2019-03-20T17:42:42.584Z,26.70
2019-03-20T17:47:50.254Z,24.60
2019-03-20T17:52:57.571Z,21.17
2019-03-20T17:58:06.431Z,27.02
2019-03-20T18:03:13.598Z,24.43
2019-03-20T18:13:27.734Z,26.87
2019-03-20T18:18:34.588Z,26.52
2019-03-20T18:23:41.608Z,23.12
2019-03-20T18:28:48.592Z,27.50
2019-03-20T18:33:55.595Z,25.80
2019-03-20T18:39:02.466Z,23.95
2019-03-20T18:44:09.587Z,25.52
2019-03-20T18:49:16.595Z,26.07
2019-03-20T18:54:24.445Z,29.85
2019-03-20T19:04:12.599Z,21.80
2019-03-20T19:09:19.591Z,21.25
2019-03-20T19:14:26.580Z,22.90
2019-03-20T19:19:33.612Z,19.27
2019-03-20T19:24:40.589Z,20.10
2019-03-20T19:29:47.487Z,14.38
2019-03-20T19:34:54.579Z,16.02
2019-03-20T19:45:12.424Z,9.23
2019-03-20T19:50:19.587Z,14.07
2019-03-20T19:55:26.588Z,13.72
2019-03-20T20:00:33.584Z,11.30
2019-03-20T20:05:40.522Z,10.97
2019-03-20T20:10:47.589Z,13.00
2019-03-20T20:15:54.681Z,11.93
2019-03-20T20:21:01.447Z,12.13
2019-03-20T20:26:08.577Z,10.83
2019-03-20T20:31:15.587Z,11.53
2019-03-20T20:36:22.609Z,15.10
2019-03-20T20:41:29.558Z,10.60
2019-03-20T20:46:36.573Z,12.50
2019-03-20T20:55:33.674Z,12.65
2019-03-20T21:00:40.691Z,12.43
2019-03-20T21:05:47.856Z,11.57
2019-03-20T21:10:54.918Z,14.58
2019-03-20T21:16:07.588Z,11.45
2019-03-20T21:26:23.322Z,13.80
2019-03-20T21:31:54.713Z,13.32
2019-03-20T21:38:05.934Z,11.22
2019-03-20T21:47:30.265Z,13.10
2019-03-20T21:58:37.265Z,14.20
2019-03-20T22:03:45.253Z,17.07
2019-03-20T22:08:59.783Z,14.40
2019-03-20T22:14:11.252Z,17.80
2019-03-20T22:19:42.636Z,23.60
2019-03-20T22:25:26.613Z,18.30
2019-03-20T22:30:34.592Z,32.20
2019-03-20T22:35:56.749Z,23.20
2019-03-20T22:41:46.272Z,24.47
2019-03-20T22:48:43.442Z,26.55
2019-03-20T22:54:58.717Z,28.90
2019-03-20T23:00:10.267Z,30.90
2019-03-20T23:05:20.113Z,27.10
2019-03-20T23:10:29.457Z,36.28
2019-03-20T23:15:37.273Z,33.12
2019-03-20T23:25:52.064Z,34.63
2019-03-20T23:31:00.587Z,34.60
2019-03-20T23:36:09.628Z,38.33
2019-03-20T23:41:19.067Z,33.88
2019-03-20T23:46:28.460Z,31.37
2019-03-20T23:51:37.246Z,31.65
2019-03-20T23:56:45.625Z,39.53
